createdAt,value
2018-06-27T00:00:42.228Z,99.90
2018-06-27T00:05:39.088Z,99.90
2018-06-27T00:08:07.868Z,99.90
2018-06-27T00:10:36.449Z,99.90
2018-06-27T00:13:04.912Z,99.90
2018-06-27T00:15:33.669Z,99.90
2018-06-27T00:18:02.113Z,99.90
2018-06-27T00:20:30.701Z,99.90
2018-06-27T00:22:59.235Z,99.90
2018-06-27T00:25:27.967Z,99.90
2018-06-27T00:27:56.445Z,99.90
2018-06-27T00:30:25.028Z,99.90
2018-06-27T00:32:53.564Z,99.90
2018-06-27T00:35:22.041Z,99.90
2018-06-27T00:37:50.469Z,99.90
2018-06-27T00:40:18.939Z,99.90
2018-06-27T00:42:47.546Z,99.90
2018-06-27T00:45:16.195Z,99.90
2018-06-27T00:47:44.622Z,99.90
2018-06-27T00:52:41.259Z,99.90
2018-06-27T00:55:09.721Z,99.90
2018-06-27T00:57:38.156Z,99.90
2018-06-27T01:00:06.644Z,99.90
2018-06-27T01:05:03.219Z,99.90
2018-06-27T01:07:31.666Z,99.90
2018-06-27T01:10:00.192Z,99.90
2018-06-27T01:12:28.656Z,99.90
2018-06-27T01:14:57.302Z,99.90
2018-06-27T01:17:25.729Z,99.90
2018-06-27T01:19:54.205Z,99.90
2018-06-27T01:22:22.684Z,99.90
2018-06-27T01:24:51.223Z,99.90
2018-06-27T01:27:20.705Z,99.90
2018-06-27T01:29:49.220Z,99.90
2018-06-27T01:34:45.827Z,99.90
2018-06-27T01:37:14.477Z,99.90
2018-06-27T01:39:42.942Z,99.90
2018-06-27T01:42:11.415Z,99.90
2018-06-27T01:44:39.864Z,99.90
2018-06-27T01:47:08.335Z,99.90
2018-06-27T01:49:36.947Z,99.90
2018-06-27T01:52:05.493Z,99.90
2018-06-27T01:54:34.303Z,99.90
2018-06-27T01:57:02.805Z,99.90
2018-06-27T01:59:31.250Z,99.90
2018-06-27T02:01:59.984Z,99.90
2018-06-27T02:04:28.569Z,99.90
2018-06-27T02:06:57.184Z,99.90
2018-06-27T02:11:53.755Z,99.90
2018-06-27T02:14:22.430Z,99.90
2018-06-27T02:16:51.469Z,99.90
2018-06-27T02:19:19.929Z,99.90
2018-06-27T02:21:48.438Z,99.90
2018-06-27T02:24:16.993Z,99.90
2018-06-27T02:26:45.610Z,99.90
2018-06-27T02:29:14.063Z,99.90
2018-06-27T02:31:42.906Z,99.90
2018-06-27T02:34:11.362Z,99.90
2018-06-27T02:36:39.981Z,99.90
2018-06-27T02:39:09.899Z,99.90
2018-06-27T02:41:39.492Z,99.90
2018-06-27T02:44:08.384Z,99.90
2018-06-27T02:46:37.197Z,99.90
2018-06-27T02:51:33.822Z,99.90
2018-06-27T02:54:02.333Z,99.90
2018-06-27T02:58:58.940Z,99.90
2018-06-27T03:01:27.389Z,99.90
2018-06-27T03:03:55.897Z,99.90
2018-06-27T03:06:24.350Z,99.90
2018-06-27T03:08:52.813Z,99.90
2018-06-27T03:11:21.303Z,99.90
2018-06-27T03:16:17.884Z,99.90
2018-06-27T03:18:54.045Z,99.90
2018-06-27T03:21:23.103Z,99.90
2018-06-27T03:23:51.799Z,99.90
2018-06-27T03:26:20.395Z,99.90
2018-06-27T03:31:19.100Z,99.90
2018-06-27T03:33:47.686Z,99.90
2018-06-27T03:36:16.245Z,99.90
2018-06-27T03:38:44.776Z,99.90
2018-06-27T03:41:13.358Z,99.90
2018-06-27T03:43:41.868Z,99.90
2018-06-27T03:46:10.376Z,99.90
2018-06-27T03:48:38.836Z,99.90
2018-06-27T03:51:07.381Z,99.90
2018-06-27T03:53:43.167Z,99.90
2018-06-27T03:56:12.665Z,99.90
2018-06-27T03:58:41.156Z,99.90
2018-06-27T04:01:10.687Z,99.90
2018-06-27T04:03:40.623Z,99.90
2018-06-27T04:06:10.209Z,99.90
2018-06-27T04:08:38.689Z,99.90
2018-06-27T04:11:07.152Z,99.90
2018-06-27T04:13:35.865Z,99.90
2018-06-27T04:16:04.307Z,99.90
2018-06-27T04:18:32.835Z,99.90
2018-06-27T04:21:01.318Z,99.90
2018-06-27T04:23:29.760Z,99.90
2018-06-27T04:25:58.196Z,99.90
2018-06-27T04:30:54.915Z,99.90
2018-06-27T04:33:23.376Z,99.90
2018-06-27T04:35:52.166Z,99.90
2018-06-27T04:38:20.663Z,99.90
2018-06-27T04:40:49.181Z,99.90
2018-06-27T04:45:45.839Z,99.90
2018-06-27T04:48:14.356Z,99.90
2018-06-27T04:50:42.856Z,99.90
2018-06-27T04:53:11.410Z,99.90
2018-06-27T04:55:39.876Z,99.90
2018-06-27T04:58:08.302Z,99.90
2018-06-27T05:00:36.831Z,99.90
2018-06-27T05:03:05.292Z,99.90
2018-06-27T05:05:33.784Z,99.90
2018-06-27T05:08:02.434Z,99.90
2018-06-27T05:10:30.868Z,99.90
2018-06-27T05:12:59.471Z,99.90
2018-06-27T05:17:56.111Z,99.90
2018-06-27T05:20:24.600Z,99.90
2018-06-27T05:22:53.250Z,99.90
2018-06-27T05:25:21.973Z,99.90
2018-06-27T05:27:50.426Z,99.90
2018-06-27T05:30:18.917Z,99.90
2018-06-27T05:32:47.561Z,99.90
2018-06-27T05:35:16.096Z,99.90
2018-06-27T05:37:44.591Z,99.90
2018-06-27T05:40:13.382Z,99.90
2018-06-27T05:42:41.811Z,99.90
2018-06-27T05:45:10.324Z,99.60
2018-06-27T05:47:38.973Z,99.30
2018-06-27T05:50:07.894Z,95.30
2018-06-27T05:52:36.496Z,94.50
2018-06-27T05:55:08.237Z,95.30
2018-06-27T05:57:38.128Z,94.20
2018-06-27T06:00:07.594Z,93.30
2018-06-27T06:02:36.444Z,91.80
2018-06-27T06:05:05.783Z,91.60
2018-06-27T06:07:34.473Z,90.30
2018-06-27T06:10:03.712Z,90.40
2018-06-27T06:12:33.379Z,92.40
2018-06-27T06:15:01.914Z,93.00
2018-06-27T06:17:30.464Z,93.80
2018-06-27T06:19:58.982Z,92.60
2018-06-27T06:22:27.472Z,92.70
2018-06-27T06:24:55.935Z,92.60
2018-06-27T06:27:24.388Z,92.60
2018-06-27T06:29:52.829Z,93.00
2018-06-27T06:32:21.457Z,90.20
2018-06-27T06:34:49.931Z,88.10
2018-06-27T06:37:18.380Z,86.30
2018-06-27T06:39:47.882Z,87.80
2018-06-27T06:42:16.362Z,86.40
2018-06-27T06:44:44.820Z,87.70
2018-06-27T06:47:13.289Z,84.30
2018-06-27T06:49:41.879Z,79.80
2018-06-27T06:52:10.441Z,78.60
2018-06-27T06:54:38.915Z,77.20
2018-06-27T06:57:07.359Z,77.40
2018-06-27T06:59:35.839Z,76.40
2018-06-27T07:02:04.397Z,73.90
2018-06-27T07:04:32.825Z,72.20
2018-06-27T07:07:01.573Z,72.70
2018-06-27T07:09:30.319Z,69.60
2018-06-27T07:11:58.849Z,70.40
2018-06-27T07:14:27.386Z,71.10
2018-06-27T07:16:55.873Z,68.50
2018-06-27T07:19:24.308Z,67.80
2018-06-27T07:21:52.905Z,68.80
2018-06-27T07:24:21.393Z,66.80
2018-06-27T07:26:49.934Z,66.60
2018-06-27T07:29:18.451Z,66.10
2018-06-27T07:31:47.486Z,64.80
2018-06-27T07:34:16.541Z,63.90
2018-06-27T07:36:45.118Z,64.20
2018-06-27T07:39:13.574Z,62.40
2018-06-27T07:41:42.637Z,63.10
2018-06-27T07:44:14.768Z,61.00
2018-06-27T07:46:43.307Z,59.20
2018-06-27T07:49:11.740Z,58.80
2018-06-27T07:51:40.145Z,57.30
2018-06-27T07:54:08.601Z,57.00
2018-06-27T07:56:37.110Z,55.80
2018-06-27T07:59:05.795Z,57.20
2018-06-27T08:04:02.364Z,55.70
2018-06-27T08:06:36.045Z,55.80
2018-06-27T08:09:07.740Z,55.40
2018-06-27T08:11:36.241Z,56.00
2018-06-27T08:14:05.136Z,56.10
2018-06-27T08:16:34.145Z,54.20
2018-06-27T08:19:02.641Z,54.10
2018-06-27T08:21:31.103Z,52.70
2018-06-27T08:23:59.661Z,52.00
2018-06-27T08:26:28.446Z,51.90
2018-06-27T08:28:56.695Z,52.10
2018-06-27T08:31:25.214Z,51.90
2018-06-27T08:33:53.734Z,51.60
2018-06-27T08:36:22.251Z,50.50
2018-06-27T08:38:50.898Z,52.80
2018-06-27T08:41:19.429Z,51.10
2018-06-27T08:43:48.223Z,50.80
2018-06-27T08:46:16.619Z,51.60
2018-06-27T08:48:45.108Z,51.70
2018-06-27T08:51:13.588Z,51.20
2018-06-27T08:53:42.307Z,50.30
2018-06-27T08:56:11.005Z,50.20
2018-06-27T08:58:39.466Z,49.40
2018-06-27T09:01:08.232Z,49.00
2018-06-27T09:03:36.760Z,48.40
2018-06-27T09:06:05.349Z,46.90
2018-06-27T09:08:33.821Z,46.50
2018-06-27T09:11:02.585Z,45.10
2018-06-27T09:13:31.094Z,45.00
2018-06-27T09:15:59.891Z,48.50
2018-06-27T09:18:28.369Z,48.60
2018-06-27T09:20:56.852Z,48.60
2018-06-27T09:23:25.397Z,47.20
2018-06-27T09:25:53.965Z,46.40
2018-06-27T09:28:22.397Z,47.30
2018-06-27T09:30:51.023Z,48.50
2018-06-27T09:33:19.518Z,46.90
2018-06-27T09:35:47.928Z,46.30
2018-06-27T09:38:16.862Z,46.70
2018-06-27T09:40:45.588Z,46.00
2018-06-27T09:43:14.096Z,44.10
2018-06-27T09:45:42.583Z,44.70
2018-06-27T09:48:11.152Z,45.00
2018-06-27T09:50:39.669Z,45.60
2018-06-27T09:53:08.236Z,44.00
2018-06-27T09:55:36.717Z,44.00
2018-06-27T09:58:05.209Z,43.30
2018-06-27T10:00:39.519Z,43.70
2018-06-27T10:03:09.283Z,44.20
2018-06-27T10:05:38.749Z,44.80
2018-06-27T10:08:07.677Z,44.30
2018-06-27T10:10:36.224Z,44.00
2018-06-27T10:13:05.031Z,45.60
2018-06-27T10:18:01.929Z,44.90
2018-06-27T10:20:30.393Z,43.30
2018-06-27T10:22:58.888Z,43.40
2018-06-27T10:25:27.426Z,44.40
2018-06-27T10:27:55.912Z,45.60
2018-06-27T10:30:24.392Z,44.30
2018-06-27T10:32:52.905Z,43.20
2018-06-27T10:35:21.554Z,43.00
2018-06-27T10:37:50.064Z,42.50
2018-06-27T10:40:18.608Z,43.00
2018-06-27T10:42:47.075Z,42.80
2018-06-27T10:45:15.630Z,44.70
2018-06-27T10:47:44.104Z,43.50
2018-06-27T10:50:12.656Z,44.00
2018-06-27T10:52:41.173Z,44.40
2018-06-27T10:55:15.179Z,44.50
2018-06-27T10:57:43.669Z,44.30
2018-06-27T11:00:12.341Z,44.50
2018-06-27T11:02:40.845Z,44.20
2018-06-27T11:05:09.498Z,44.80
2018-06-27T11:07:38.100Z,46.50
2018-06-27T11:10:07.229Z,46.90
2018-06-27T11:12:35.641Z,45.80
2018-06-27T11:15:04.171Z,47.20
2018-06-27T11:17:38.174Z,47.50
2018-06-27T11:20:09.696Z,47.80
2018-06-27T11:22:41.339Z,47.00
2018-06-27T11:25:17.136Z,46.30
2018-06-27T11:27:49.730Z,46.90
2018-06-27T11:30:19.832Z,47.10
2018-06-27T11:32:48.908Z,47.30
2018-06-27T11:35:24.768Z,48.90
2018-06-27T11:37:53.269Z,47.20
2018-06-27T11:40:22.004Z,48.70
2018-06-27T11:42:50.501Z,48.90
2018-06-27T11:45:26.572Z,49.30
2018-06-27T11:47:55.122Z,50.00
2018-06-27T11:50:24.274Z,50.80
2018-06-27T11:52:52.857Z,51.20
2018-06-27T11:55:21.372Z,51.40
2018-06-27T11:57:49.893Z,51.00
2018-06-27T12:00:18.478Z,48.90
2018-06-27T12:02:47.053Z,50.00
2018-06-27T12:05:15.578Z,50.30
2018-06-27T12:07:44.214Z,52.30
2018-06-27T12:10:12.801Z,52.10
2018-06-27T12:12:41.709Z,51.10
2018-06-27T12:15:10.517Z,48.40
2018-06-27T12:17:39.982Z,50.00
2018-06-27T12:20:08.553Z,49.80
2018-06-27T12:22:37.084Z,49.60
2018-06-27T12:25:05.877Z,49.60
2018-06-27T12:27:34.551Z,50.70
2018-06-27T12:30:03.209Z,52.50
2018-06-27T12:32:31.975Z,50.00
2018-06-27T12:35:00.581Z,41.50
2018-06-27T12:37:29.065Z,42.20
2018-06-27T12:39:57.618Z,44.50
2018-06-27T12:42:26.093Z,43.80
2018-06-27T12:44:54.968Z,45.20
2018-06-27T12:47:23.531Z,44.70
2018-06-27T12:49:52.428Z,43.60
2018-06-27T12:52:20.969Z,44.30
2018-06-27T12:54:52.086Z,45.70
2018-06-27T12:57:20.600Z,46.20
2018-06-27T12:59:49.136Z,47.30
2018-06-27T13:02:17.646Z,47.90
2018-06-27T13:04:47.167Z,48.50
2018-06-27T13:07:15.709Z,49.50
2018-06-27T13:09:44.105Z,48.60
2018-06-27T13:12:12.665Z,49.90
2018-06-27T13:14:41.138Z,51.30
2018-06-27T13:17:11.416Z,51.30
2018-06-27T13:19:39.960Z,50.40
2018-06-27T13:22:08.561Z,50.80
2018-06-27T13:24:37.454Z,51.20
2018-06-27T13:27:06.351Z,51.50
2018-06-27T13:29:34.836Z,52.90
2018-06-27T13:32:03.680Z,53.10
2018-06-27T13:34:32.290Z,54.50
2018-06-27T13:37:00.906Z,55.40
2018-06-27T13:39:29.395Z,53.50
2018-06-27T13:41:58.014Z,52.80
2018-06-27T13:44:26.615Z,51.70
2018-06-27T13:46:55.150Z,52.60
2018-06-27T13:49:23.911Z,54.00
2018-06-27T13:51:52.485Z,54.70
2018-06-27T13:56:49.253Z,54.10
2018-06-27T13:59:18.259Z,53.00
2018-06-27T14:01:47.234Z,51.80
2018-06-27T14:04:15.884Z,50.00
2018-06-27T14:06:44.377Z,50.60
2018-06-27T14:09:13.068Z,52.00
2018-06-27T14:11:41.643Z,52.50
2018-06-27T14:14:10.598Z,51.70
2018-06-27T14:16:39.494Z,50.80
2018-06-27T14:19:07.980Z,50.20
2018-06-27T14:21:36.796Z,49.40
2018-06-27T14:24:05.748Z,49.10
2018-06-27T14:26:34.309Z,49.60
2018-06-27T14:29:03.456Z,48.50
2018-06-27T14:31:31.962Z,47.40
2018-06-27T14:34:00.439Z,47.00
2018-06-27T14:36:28.889Z,46.80
2018-06-27T14:38:57.354Z,46.50
2018-06-27T14:41:25.956Z,46.40
2018-06-27T14:43:54.612Z,46.90
2018-06-27T14:46:23.503Z,46.90
2018-06-27T14:48:52.073Z,47.20
2018-06-27T14:51:20.543Z,46.50
2018-06-27T14:53:49.037Z,46.30
2018-06-27T14:56:17.605Z,46.80
2018-06-27T14:58:46.043Z,46.50
2018-06-27T15:01:14.537Z,46.00
2018-06-27T15:03:42.970Z,47.80
2018-06-27T15:06:11.495Z,49.50
2018-06-27T15:08:39.965Z,49.90
2018-06-27T15:11:08.844Z,48.40
2018-06-27T15:13:37.315Z,48.40
2018-06-27T15:16:05.841Z,45.70
2018-06-27T15:18:34.396Z,47.00
2018-06-27T15:21:02.964Z,49.60
2018-06-27T15:23:31.548Z,51.30
2018-06-27T15:26:00.066Z,51.40
2018-06-27T15:28:29.555Z,51.70
2018-06-27T15:30:58.044Z,52.30
2018-06-27T15:33:26.552Z,52.30
2018-06-27T15:35:55.016Z,50.40
2018-06-27T15:38:23.516Z,51.40
2018-06-27T15:40:52.589Z,51.60
2018-06-27T15:43:21.386Z,51.80
2018-06-27T15:45:49.942Z,53.50
2018-06-27T15:48:18.557Z,53.90
2018-06-27T15:50:47.063Z,54.50
2018-06-27T15:53:15.605Z,54.90
2018-06-27T15:55:44.140Z,54.60
2018-06-27T15:58:12.752Z,54.50
2018-06-27T16:00:41.251Z,54.60
2018-06-27T16:03:09.818Z,55.20
2018-06-27T16:05:38.641Z,55.90
2018-06-27T16:08:09.021Z,55.60
2018-06-27T16:10:37.820Z,55.30
2018-06-27T16:13:06.544Z,55.60
2018-06-27T16:15:35.107Z,55.70
2018-06-27T16:18:03.603Z,56.00
2018-06-27T16:20:32.229Z,56.00
2018-06-27T16:23:00.824Z,55.70
2018-06-27T16:25:29.320Z,54.40
2018-06-27T16:27:57.926Z,54.30
2018-06-27T16:30:26.420Z,55.20
2018-06-27T16:32:54.973Z,54.00
2018-06-27T16:35:23.508Z,54.20
2018-06-27T16:37:52.126Z,54.30
2018-06-27T16:40:20.667Z,53.50
2018-06-27T16:42:49.148Z,53.40
2018-06-27T16:45:18.735Z,53.50
2018-06-27T16:47:47.216Z,52.80
2018-06-27T16:50:15.662Z,53.00
2018-06-27T16:52:44.299Z,53.40
2018-06-27T16:55:12.783Z,53.00
2018-06-27T16:57:41.320Z,52.70
2018-06-27T17:00:10.109Z,52.80
2018-06-27T17:02:38.922Z,53.40
2018-06-27T17:05:07.840Z,53.30
2018-06-27T17:07:36.597Z,53.50
2018-06-27T17:10:06.028Z,53.60
2018-06-27T17:12:34.627Z,52.20
2018-06-27T17:17:31.356Z,52.30
2018-06-27T17:19:59.999Z,52.00
2018-06-27T17:22:28.841Z,51.80
2018-06-27T17:24:57.329Z,51.70
2018-06-27T17:27:25.942Z,50.80
2018-06-27T17:29:54.702Z,47.80
2018-06-27T17:32:23.534Z,47.70
2018-06-27T17:34:52.104Z,46.30
2018-06-27T17:37:20.919Z,45.40
2018-06-27T17:39:49.451Z,45.00
2018-06-27T17:42:17.985Z,44.80
2018-06-27T17:44:46.924Z,44.30
2018-06-27T17:47:15.407Z,44.10
2018-06-27T17:49:43.969Z,45.30
2018-06-27T17:52:12.905Z,46.60
2018-06-27T17:57:09.558Z,47.90
2018-06-27T17:59:38.040Z,48.30
2018-06-27T18:02:06.765Z,49.10
2018-06-27T18:04:35.516Z,50.00
2018-06-27T18:07:04.089Z,50.50
2018-06-27T18:09:32.945Z,51.70
2018-06-27T18:12:01.592Z,51.00
2018-06-27T18:14:30.092Z,51.60
2018-06-27T18:16:59.066Z,51.90
2018-06-27T18:19:27.558Z,52.30
2018-06-27T18:21:56.142Z,52.70
2018-06-27T18:24:25.114Z,52.70
2018-06-27T18:26:53.720Z,53.10
2018-06-27T18:29:22.289Z,53.40
2018-06-27T18:31:50.899Z,54.00
2018-06-27T18:34:19.436Z,54.30
2018-06-27T18:36:48.628Z,54.90
2018-06-27T18:39:17.375Z,55.00
2018-06-27T18:41:45.811Z,55.20
2018-06-27T18:44:14.598Z,55.60
2018-06-27T18:46:43.137Z,56.10
2018-06-27T18:49:11.703Z,56.30
2018-06-27T18:51:40.242Z,56.70
2018-06-27T18:54:08.842Z,57.00
2018-06-27T18:56:37.526Z,57.50
2018-06-27T18:59:06.121Z,58.20
2018-06-27T19:01:34.903Z,59.40
2018-06-27T19:04:04.327Z,59.10
2018-06-27T19:06:32.873Z,59.80
2018-06-27T19:09:01.473Z,60.40
2018-06-27T19:11:30.103Z,60.90
2018-06-27T19:13:58.589Z,61.60
2018-06-27T19:16:27.043Z,62.50
2018-06-27T19:18:56.324Z,62.90
2018-06-27T19:21:25.060Z,63.30
2018-06-27T19:23:53.892Z,64.10
2018-06-27T19:26:22.830Z,64.80
2018-06-27T19:28:51.302Z,65.40
2018-06-27T19:31:21.100Z,66.00
2018-06-27T19:36:17.863Z,67.20
2018-06-27T19:38:46.734Z,68.20
2018-06-27T19:41:15.862Z,68.80
2018-06-27T19:43:44.414Z,69.60
2018-06-27T19:46:13.225Z,70.10
2018-06-27T19:48:41.726Z,70.50
2018-06-27T19:51:10.300Z,71.40
2018-06-27T19:53:38.879Z,71.90
2018-06-27T19:56:07.497Z,73.00
2018-06-27T19:58:37.402Z,73.80
2018-06-27T20:01:06.093Z,74.60
2018-06-27T20:03:45.634Z,75.50
2018-06-27T20:06:14.201Z,76.30
2018-06-27T20:08:42.785Z,77.30
2018-06-27T20:11:11.322Z,77.60
2018-06-27T20:13:40.453Z,77.90
2018-06-27T20:16:09.106Z,78.90
2018-06-27T20:18:37.508Z,79.70
2018-06-27T20:21:06.052Z,80.50
2018-06-27T20:23:34.796Z,81.00
2018-06-27T20:26:03.587Z,80.70
2018-06-27T20:28:32.266Z,81.60
2018-06-27T20:31:00.761Z,81.00
2018-06-27T20:33:29.432Z,81.50
2018-06-27T20:35:57.968Z,82.00
2018-06-27T20:38:26.628Z,82.50
2018-06-27T20:40:55.892Z,82.80
2018-06-27T20:43:24.481Z,83.80
2018-06-27T20:45:53.174Z,85.10
2018-06-27T20:48:21.686Z,85.40
2018-06-27T20:50:50.164Z,85.90
2018-06-27T20:53:18.735Z,87.30
2018-06-27T20:55:47.216Z,89.10
2018-06-27T20:58:15.774Z,90.50
2018-06-27T21:00:45.042Z,89.70
2018-06-27T21:03:13.556Z,90.00
2018-06-27T21:05:42.205Z,89.40
2018-06-27T21:08:10.809Z,89.90
2018-06-27T21:10:39.476Z,89.80
2018-06-27T21:13:08.330Z,90.20
2018-06-27T21:15:37.291Z,90.50
2018-06-27T21:18:07.892Z,90.60
2018-06-27T21:20:36.426Z,90.80
2018-06-27T21:23:05.358Z,91.40
2018-06-27T21:25:33.831Z,91.70
2018-06-27T21:28:02.290Z,92.30
2018-06-27T21:30:31.081Z,92.80
2018-06-27T21:32:59.561Z,93.20
2018-06-27T21:35:28.147Z,93.40
2018-06-27T21:37:56.653Z,93.60
2018-06-27T21:40:25.641Z,94.30
2018-06-27T21:42:54.531Z,94.30
2018-06-27T21:45:23.045Z,94.80
2018-06-27T21:47:51.581Z,95.40
2018-06-27T21:50:20.008Z,95.80
2018-06-27T21:52:48.614Z,96.40
2018-06-27T21:55:17.352Z,97.60
2018-06-27T21:57:46.158Z,98.20
2018-06-27T22:00:15.799Z,99.30
2018-06-27T22:02:44.470Z,99.90
2018-06-27T22:05:12.991Z,99.90
2018-06-27T22:07:41.482Z,99.90
2018-06-27T22:10:10.105Z,99.90
2018-06-27T22:12:38.697Z,99.90
2018-06-27T22:15:07.201Z,99.90
2018-06-27T22:17:35.770Z,99.90
2018-06-27T22:20:04.329Z,99.90
2018-06-27T22:22:32.751Z,99.90
2018-06-27T22:25:01.190Z,99.90
2018-06-27T22:27:29.692Z,99.90
2018-06-27T22:29:58.126Z,99.90
2018-06-27T22:32:26.544Z,99.90
2018-06-27T22:34:55.037Z,99.90
2018-06-27T22:37:23.492Z,99.90
2018-06-27T22:39:52.019Z,99.90
2018-06-27T22:42:20.486Z,99.90
2018-06-27T22:44:48.962Z,99.90
2018-06-27T22:47:17.525Z,99.90
2018-06-27T22:49:46.050Z,99.90
2018-06-27T22:52:14.593Z,99.90
2018-06-27T22:54:43.044Z,99.90
2018-06-27T22:57:11.605Z,99.90
2018-06-27T22:59:40.129Z,99.90
2018-06-27T23:02:09.025Z,99.90
2018-06-27T23:04:37.512Z,99.90
2018-06-27T23:09:34.157Z,99.90
2018-06-27T23:12:02.585Z,99.90
2018-06-27T23:14:31.237Z,99.90
2018-06-27T23:16:59.686Z,99.90
2018-06-27T23:19:28.261Z,99.90
2018-06-27T23:21:56.589Z,99.90
2018-06-27T23:24:25.029Z,99.90
2018-06-27T23:26:53.609Z,99.90
2018-06-27T23:29:22.538Z,99.90
2018-06-27T23:31:51.180Z,99.90
2018-06-27T23:34:19.634Z,99.90
2018-06-27T23:36:48.147Z,99.90
2018-06-27T23:39:16.612Z,99.90
2018-06-27T23:41:45.561Z,99.90
2018-06-27T23:44:14.013Z,99.90
2018-06-27T23:46:42.506Z,99.90
2018-06-27T23:49:11.024Z,99.90
2018-06-27T23:51:39.936Z,99.90
2018-06-27T23:54:08.476Z,99.90
2018-06-27T23:56:36.957Z,99.90
2018-06-27T23:59:05.407Z,99.90
